createdAt,value
2023-05-27T00:02:15.893Z,5.24
2023-05-27T00:04:42.555Z,4.99
2023-05-27T00:07:09.202Z,5.14
2023-05-27T00:09:36.615Z,5.05
2023-05-27T00:12:03.319Z,5.22
2023-05-27T00:14:29.940Z,5.07
2023-05-27T00:16:56.564Z,4.88
2023-05-27T00:19:24.758Z,4.89
2023-05-27T00:21:55.759Z,4.76
2023-05-27T00:24:22.807Z,5.06
2023-05-27T00:26:49.440Z,4.95
2023-05-27T00:29:19.903Z,5.14
2023-05-27T00:31:46.543Z,5.05
2023-05-27T00:34:13.166Z,5.29
2023-05-27T00:36:39.783Z,5.25
2023-05-27T00:39:06.965Z,5.21
2023-05-27T00:41:33.641Z,4.90
2023-05-27T00:44:00.333Z,5.07
2023-05-27T00:46:27.036Z,5.14
2023-05-27T00:48:53.844Z,5.28
2023-05-27T00:51:21.028Z,5.18
2023-05-27T00:53:47.955Z,5.30
2023-05-27T00:56:16.447Z,5.11
2023-05-27T00:58:43.770Z,4.89
2023-05-27T01:01:11.552Z,5.00
2023-05-27T01:03:39.918Z,4.93
2023-05-27T01:06:09.973Z,4.92
2023-05-27T01:09:04.574Z,4.76
2023-05-27T01:11:43.024Z,5.05
2023-05-27T01:14:12.497Z,4.73
2023-05-27T01:16:44.954Z,4.85
2023-05-27T01:19:31.680Z,4.71
2023-05-27T01:22:00.629Z,4.78
2023-05-27T01:24:27.825Z,5.05
2023-05-27T01:27:01.925Z,4.78
2023-05-27T01:29:29.802Z,4.82
2023-05-27T01:32:16.295Z,4.84
2023-05-27T01:34:52.724Z,4.67
2023-05-27T01:37:21.103Z,4.57
2023-05-27T01:39:50.424Z,4.48
2023-05-27T01:42:17.246Z,4.70
2023-05-27T01:44:44.029Z,4.39
2023-05-27T01:47:11.937Z,4.50
2023-05-27T01:49:38.702Z,4.81
2023-05-27T01:52:05.893Z,4.72
2023-05-27T01:54:32.858Z,4.64
2023-05-27T01:56:59.427Z,4.59
2023-05-27T01:59:26.214Z,4.96
2023-05-27T02:01:53.173Z,4.45
2023-05-27T02:04:19.753Z,4.78
2023-05-27T02:06:46.323Z,4.79
2023-05-27T02:09:14.146Z,4.66
2023-05-27T02:11:40.880Z,4.68
2023-05-27T02:14:08.403Z,4.94
2023-05-27T02:16:35.332Z,5.09
2023-05-27T02:19:02.348Z,4.76
2023-05-27T02:21:29.308Z,4.71
2023-05-27T02:23:55.867Z,4.78
2023-05-27T02:26:22.958Z,4.93
2023-05-27T02:28:49.580Z,5.12
2023-05-27T02:31:16.164Z,5.08
2023-05-27T02:33:42.779Z,4.99
2023-05-27T02:36:09.603Z,4.97
2023-05-27T02:38:36.243Z,4.98
2023-05-27T02:41:02.862Z,4.81
2023-05-27T02:43:29.439Z,4.77
2023-05-27T02:45:56.339Z,4.94
2023-05-27T02:48:23.120Z,4.76
2023-05-27T02:50:49.710Z,4.93
2023-05-27T02:53:16.326Z,4.99
2023-05-27T02:55:42.942Z,4.62
2023-05-27T02:58:09.517Z,4.82
2023-05-27T03:00:36.104Z,4.87
2023-05-27T03:03:05.598Z,4.99
2023-05-27T03:05:32.273Z,4.86
2023-05-27T03:07:58.896Z,5.01
2023-05-27T03:10:25.467Z,4.97
2023-05-27T03:12:54.920Z,5.13
2023-05-27T03:15:22.756Z,4.86
2023-05-27T03:17:49.390Z,4.84
2023-05-27T03:20:17.537Z,5.00
2023-05-27T03:22:44.790Z,4.70
2023-05-27T03:25:12.426Z,4.81
2023-05-27T03:27:39.183Z,5.04
2023-05-27T03:30:06.962Z,4.75
2023-05-27T03:32:33.672Z,4.96
2023-05-27T03:35:00.595Z,4.89
2023-05-27T03:37:27.855Z,5.32
2023-05-27T03:39:54.420Z,5.11
2023-05-27T03:42:21.161Z,4.98
2023-05-27T03:44:48.056Z,4.94
2023-05-27T03:47:14.605Z,4.96
2023-05-27T03:49:41.531Z,4.94
2023-05-27T03:52:08.142Z,5.22
2023-05-27T03:54:34.744Z,5.00
2023-05-27T03:57:02.239Z,4.98
2023-05-27T03:59:28.824Z,4.89
2023-05-27T04:01:55.460Z,5.32
2023-05-27T04:04:22.173Z,5.05
2023-05-27T04:06:48.989Z,5.01
2023-05-27T04:09:15.586Z,5.21
2023-05-27T04:11:43.183Z,5.02
2023-05-27T04:14:10.879Z,5.44
2023-05-27T04:16:37.683Z,5.41
2023-05-27T04:19:04.622Z,5.24
2023-05-27T04:21:32.475Z,5.53
2023-05-27T04:23:59.042Z,5.29
2023-05-27T04:26:25.693Z,5.45
2023-05-27T04:28:52.868Z,5.33
2023-05-27T04:31:19.550Z,5.47
2023-05-27T04:33:46.340Z,5.31
2023-05-27T04:36:13.280Z,5.37
2023-05-27T04:38:39.844Z,5.47
2023-05-27T04:41:06.402Z,5.51
2023-05-27T04:43:34.317Z,5.20
2023-05-27T04:46:00.893Z,5.92
2023-05-27T04:48:28.007Z,5.39
2023-05-27T04:50:54.752Z,5.14
2023-05-27T04:53:22.373Z,5.23
2023-05-27T04:55:49.326Z,5.47
2023-05-27T04:58:16.252Z,5.46
2023-05-27T05:00:49.177Z,5.06
2023-05-27T05:03:22.791Z,5.32
2023-05-27T05:05:52.452Z,5.29
2023-05-27T05:08:20.314Z,5.28
2023-05-27T05:10:48.288Z,5.31
2023-05-27T05:13:17.109Z,5.42
2023-05-27T05:15:44.877Z,5.54
2023-05-27T05:18:12.277Z,5.39
2023-05-27T05:20:39.080Z,5.43
2023-05-27T05:23:05.818Z,5.40
2023-05-27T05:25:36.345Z,5.58
2023-05-27T05:28:02.883Z,5.75
2023-05-27T05:30:29.415Z,5.35
2023-05-27T05:32:56.105Z,5.53
2023-05-27T05:35:22.686Z,5.46
2023-05-27T05:37:50.208Z,5.36
2023-05-27T05:40:17.110Z,5.77
2023-05-27T05:42:43.684Z,5.56
2023-05-27T05:45:10.410Z,5.60
2023-05-27T05:47:37.033Z,5.43
2023-05-27T05:50:03.800Z,5.80
2023-05-27T05:52:33.763Z,5.61
2023-05-27T05:55:00.481Z,5.73
2023-05-27T05:57:27.234Z,5.37
2023-05-27T05:59:53.791Z,5.62
2023-05-27T06:02:20.632Z,5.82
2023-05-27T06:04:47.381Z,5.37
2023-05-27T06:07:14.009Z,5.58
2023-05-27T06:09:40.887Z,5.58
2023-05-27T06:12:07.891Z,5.62
2023-05-27T06:14:34.528Z,5.41
2023-05-27T06:17:01.638Z,5.43
2023-05-27T06:19:28.250Z,5.56
2023-05-27T06:21:54.859Z,5.63
2023-05-27T06:24:21.444Z,5.55
2023-05-27T06:26:48.059Z,5.52
2023-05-27T06:29:14.741Z,5.71
2023-05-27T06:31:41.352Z,5.43
2023-05-27T06:34:07.922Z,5.41
2023-05-27T06:36:34.840Z,5.46
2023-05-27T06:39:01.657Z,5.53
2023-05-27T06:41:28.292Z,5.40
2023-05-27T06:43:54.888Z,5.61
2023-05-27T06:46:21.534Z,5.76
2023-05-27T06:48:48.230Z,5.32
2023-05-27T06:51:17.594Z,5.56
2023-05-27T06:53:44.195Z,5.29
2023-05-27T06:56:11.002Z,5.37
2023-05-27T06:58:37.579Z,5.35
2023-05-27T07:01:04.222Z,5.57
2023-05-27T07:03:30.955Z,5.26
2023-05-27T07:05:57.714Z,5.45
2023-05-27T07:08:24.574Z,5.45
2023-05-27T07:10:51.460Z,5.69
2023-05-27T07:13:18.512Z,5.63
2023-05-27T07:15:45.230Z,5.46
2023-05-27T07:18:11.956Z,5.55
2023-05-27T07:20:39.791Z,5.54
2023-05-27T07:23:06.639Z,5.59
2023-05-27T07:25:33.271Z,5.55
2023-05-27T07:27:59.898Z,5.37
2023-05-27T07:30:26.984Z,5.42
2023-05-27T07:32:54.286Z,5.71
2023-05-27T07:35:21.304Z,5.65
2023-05-27T07:37:47.942Z,5.58
2023-05-27T07:40:14.582Z,5.55
2023-05-27T07:42:41.286Z,5.61
2023-05-27T07:45:08.563Z,5.70
2023-05-27T07:47:35.445Z,5.72
2023-05-27T07:50:02.163Z,5.73
2023-05-27T07:52:28.800Z,5.71
2023-05-27T07:54:55.996Z,5.70
2023-05-27T07:57:22.868Z,5.83
2023-05-27T07:59:50.116Z,5.63
2023-05-27T08:02:16.792Z,5.71
2023-05-27T08:04:44.771Z,5.47
2023-05-27T08:07:11.633Z,5.79
2023-05-27T08:09:38.233Z,5.79
2023-05-27T08:12:07.085Z,5.84
2023-05-27T08:14:34.209Z,5.73
2023-05-27T08:17:01.119Z,5.69
2023-05-27T08:19:28.584Z,5.97
2023-05-27T08:21:56.943Z,5.65
2023-05-27T08:24:23.959Z,6.22
2023-05-27T08:26:51.238Z,5.88
2023-05-27T08:29:17.971Z,6.37
2023-05-27T08:31:44.704Z,6.24
2023-05-27T08:34:11.616Z,6.13
2023-05-27T08:36:38.591Z,6.04
2023-05-27T08:39:06.202Z,6.24
2023-05-27T08:41:33.034Z,6.09
2023-05-27T08:44:18.971Z,6.22
2023-05-27T08:46:50.161Z,6.13
2023-05-27T08:49:17.818Z,6.24
2023-05-27T08:51:46.448Z,6.35
2023-05-27T08:54:13.169Z,6.58
2023-05-27T08:56:41.309Z,6.84
2023-05-27T08:59:08.549Z,6.27
2023-05-27T09:01:36.603Z,6.80
2023-05-27T09:04:03.756Z,6.40
2023-05-27T09:06:30.558Z,6.55
2023-05-27T09:08:57.140Z,6.40
2023-05-27T09:11:30.261Z,6.50
2023-05-27T09:13:57.562Z,6.53
2023-05-27T09:16:24.407Z,6.51
2023-05-27T09:18:51.269Z,6.62
2023-05-27T09:21:18.416Z,6.74
2023-05-27T09:23:45.361Z,6.99
2023-05-27T09:26:13.227Z,6.73
2023-05-27T09:28:41.117Z,6.48
2023-05-27T09:31:09.791Z,6.91
2023-05-27T09:33:39.593Z,6.71
2023-05-27T09:36:07.806Z,6.41
2023-05-27T09:38:36.089Z,6.75
2023-05-27T09:41:03.974Z,6.72
2023-05-27T09:43:31.348Z,6.63
2023-05-27T09:46:04.006Z,6.53
2023-05-27T09:48:35.152Z,6.55
2023-05-27T09:51:02.105Z,6.40
2023-05-27T09:53:29.526Z,6.77
2023-05-27T09:55:58.199Z,6.31
2023-05-27T09:58:25.740Z,6.57
2023-05-27T10:00:52.965Z,6.67
2023-05-27T10:03:23.403Z,6.57
2023-05-27T10:05:52.152Z,6.64
2023-05-27T10:08:26.191Z,6.59
2023-05-27T10:10:54.439Z,6.74
2023-05-27T10:13:22.179Z,7.23
2023-05-27T10:15:51.918Z,6.98
2023-05-27T10:18:30.465Z,6.72
2023-05-27T10:20:58.951Z,6.46
2023-05-27T10:23:27.693Z,6.34
2023-05-27T10:26:01.969Z,6.52
2023-05-27T10:28:34.088Z,6.43
2023-05-27T10:31:12.566Z,6.38
2023-05-27T10:33:53.429Z,6.54
2023-05-27T10:36:25.669Z,6.74
2023-05-27T10:39:01.733Z,6.53
2023-05-27T10:41:28.436Z,6.37
2023-05-27T10:43:59.550Z,6.55
2023-05-27T10:46:27.257Z,6.20
2023-05-27T10:48:54.648Z,6.61
2023-05-27T10:51:32.584Z,6.65
2023-05-27T10:54:27.732Z,7.06
2023-05-27T10:56:51.899Z,6.19
2023-05-27T10:59:23.178Z,6.23
2023-05-27T11:01:54.586Z,6.15
2023-05-27T11:04:22.688Z,5.98
2023-05-27T11:07:03.714Z,6.20
2023-05-27T11:09:32.327Z,6.04
2023-05-27T11:12:03.793Z,6.03
2023-05-27T11:14:31.557Z,5.81
2023-05-27T11:16:58.115Z,5.67
2023-05-27T11:19:24.733Z,6.08
2023-05-27T11:21:51.370Z,6.35
2023-05-27T11:24:21.148Z,6.46
2023-05-27T11:26:48.718Z,7.50
2023-05-27T11:29:15.702Z,7.04
2023-05-27T11:31:46.833Z,7.80
2023-05-27T11:34:14.934Z,7.49
2023-05-27T11:36:45.483Z,6.05
2023-05-27T11:39:17.522Z,6.87
2023-05-27T11:41:52.148Z,6.05
2023-05-27T11:44:20.499Z,6.77
2023-05-27T11:46:48.646Z,5.66
2023-05-27T11:49:20.157Z,5.59
2023-05-27T11:51:48.696Z,5.97
2023-05-27T11:54:36.344Z,5.64
2023-05-27T11:57:07.967Z,5.79
2023-05-27T11:59:35.870Z,6.06
2023-05-27T12:02:02.498Z,5.81
2023-05-27T12:04:29.222Z,5.86
2023-05-27T12:06:56.520Z,5.88
2023-05-27T12:09:23.599Z,5.78
2023-05-27T12:11:50.394Z,5.77
2023-05-27T12:14:17.039Z,5.53
2023-05-27T12:16:43.695Z,5.49
2023-05-27T12:19:12.647Z,5.94
2023-05-27T12:21:39.575Z,5.38
2023-05-27T12:24:07.071Z,5.57
2023-05-27T12:26:33.656Z,5.51
2023-05-27T12:29:00.252Z,5.36
2023-05-27T12:31:27.007Z,5.37
2023-05-27T12:33:53.687Z,5.07
2023-05-27T12:36:20.522Z,5.27
2023-05-27T12:38:47.173Z,5.54
2023-05-27T12:41:14.503Z,36.17
2023-05-27T12:43:41.138Z,10.42
2023-05-27T12:46:07.945Z,6.24
2023-05-27T12:48:34.553Z,6.17
2023-05-27T12:51:01.284Z,6.07
2023-05-27T12:53:27.844Z,6.07
2023-05-27T12:55:54.399Z,5.84
2023-05-27T12:58:21.013Z,5.83
2023-05-27T13:00:47.711Z,5.42
2023-05-27T13:03:14.387Z,5.94
2023-05-27T13:05:41.069Z,5.45
2023-05-27T13:08:08.028Z,5.98
2023-05-27T13:10:34.844Z,5.76
2023-05-27T13:13:02.231Z,5.86
2023-05-27T13:15:30.223Z,5.82
2023-05-27T13:17:57.507Z,5.87
2023-05-27T13:20:25.667Z,5.68
2023-05-27T13:22:53.914Z,5.63
2023-05-27T13:25:21.153Z,5.66
2023-05-27T13:27:47.913Z,5.76
2023-05-27T13:30:16.372Z,5.97
2023-05-27T13:32:44.523Z,5.73
2023-05-27T13:35:12.446Z,5.50
2023-05-27T13:37:42.766Z,5.49
2023-05-27T13:40:10.355Z,5.57
2023-05-27T13:42:37.294Z,5.83
2023-05-27T13:45:04.546Z,5.72
2023-05-27T13:47:31.997Z,5.76
2023-05-27T13:49:58.686Z,5.54
2023-05-27T13:52:25.337Z,5.76
2023-05-27T13:54:52.066Z,5.91
2023-05-27T13:57:18.738Z,5.98
2023-05-27T13:59:45.347Z,5.83
2023-05-27T14:02:11.920Z,5.91
2023-05-27T14:04:38.586Z,5.62
2023-05-27T14:07:05.412Z,5.51
2023-05-27T14:09:32.018Z,5.69
2023-05-27T14:11:58.773Z,5.25
2023-05-27T14:14:25.383Z,5.75
2023-05-27T14:16:52.025Z,5.51
2023-05-27T14:19:18.733Z,5.62
2023-05-27T14:21:46.282Z,5.61
2023-05-27T14:24:13.696Z,5.54
2023-05-27T14:26:41.397Z,5.46
2023-05-27T14:29:08.160Z,5.28
2023-05-27T14:31:34.869Z,5.59
2023-05-27T14:34:01.507Z,5.68
2023-05-27T14:36:28.154Z,5.96
2023-05-27T14:38:54.769Z,5.89
2023-05-27T14:41:21.714Z,5.74
2023-05-27T14:43:50.318Z,5.76
2023-05-27T14:46:18.510Z,5.64
2023-05-27T14:48:45.234Z,5.66
2023-05-27T14:51:12.976Z,5.58
2023-05-27T14:53:39.580Z,5.72
2023-05-27T14:56:06.461Z,5.78
2023-05-27T14:58:33.047Z,6.42
2023-05-27T15:00:59.682Z,6.05
2023-05-27T15:03:26.928Z,6.32
2023-05-27T15:05:55.769Z,5.96
2023-05-27T15:08:22.362Z,5.84
2023-05-27T15:10:49.307Z,5.90
2023-05-27T15:13:15.965Z,5.57
2023-05-27T15:15:44.615Z,5.54
2023-05-27T15:18:11.913Z,5.72
2023-05-27T15:20:39.898Z,5.59
2023-05-27T15:23:06.543Z,5.65
2023-05-27T15:25:33.204Z,6.18
2023-05-27T15:27:59.847Z,5.78
2023-05-27T15:30:27.705Z,6.05
2023-05-27T15:32:54.353Z,5.95
2023-05-27T15:35:20.970Z,5.75
2023-05-27T15:37:48.123Z,6.00
2023-05-27T15:40:14.837Z,6.03
2023-05-27T15:42:41.468Z,5.74
2023-05-27T15:45:08.695Z,6.26
2023-05-27T15:47:35.735Z,5.91
2023-05-27T15:50:03.912Z,5.63
2023-05-27T15:52:30.807Z,6.09
2023-05-27T15:54:57.480Z,6.15
2023-05-27T15:57:24.342Z,5.56
2023-05-27T15:59:53.065Z,5.68
2023-05-27T16:02:19.684Z,5.84
2023-05-27T16:04:47.125Z,5.56
2023-05-27T16:07:14.636Z,5.94
2023-05-27T16:09:41.303Z,5.87
2023-05-27T16:12:08.251Z,5.66
2023-05-27T16:14:35.164Z,5.90
2023-05-27T16:17:01.721Z,5.74
2023-05-27T16:19:28.363Z,5.81
2023-05-27T16:21:54.939Z,5.46
2023-05-27T16:24:21.698Z,5.48
2023-05-27T16:26:48.291Z,5.78
2023-05-27T16:29:14.849Z,5.88
2023-05-27T16:31:41.462Z,5.72
2023-05-27T16:34:08.695Z,5.50
2023-05-27T16:36:37.395Z,5.56
2023-05-27T16:39:04.032Z,5.66
2023-05-27T16:41:30.675Z,5.49
2023-05-27T16:43:57.220Z,6.01
2023-05-27T16:46:23.893Z,5.99
2023-05-27T16:48:50.582Z,5.85
2023-05-27T16:51:17.190Z,6.00
2023-05-27T16:53:43.836Z,6.11
2023-05-27T16:56:10.846Z,6.27
2023-05-27T16:58:38.008Z,5.82
2023-05-27T17:01:04.748Z,5.86
2023-05-27T17:03:31.577Z,5.78
2023-05-27T17:05:59.717Z,5.97
2023-05-27T17:08:26.513Z,5.61
2023-05-27T17:10:53.348Z,5.69
2023-05-27T17:13:20.301Z,5.71
2023-05-27T17:15:47.123Z,6.10
2023-05-27T17:18:13.973Z,5.93
2023-05-27T17:20:41.419Z,5.98
2023-05-27T17:23:08.810Z,6.12
2023-05-27T17:25:36.417Z,6.25
2023-05-27T17:28:03.439Z,5.80
2023-05-27T17:30:30.010Z,5.79
2023-05-27T17:32:56.578Z,5.79
2023-05-27T17:35:23.413Z,5.64
2023-05-27T17:37:50.033Z,5.93
2023-05-27T17:40:16.659Z,5.85
2023-05-27T17:42:43.306Z,5.72
2023-05-27T17:45:10.112Z,5.41
2023-05-27T17:47:36.911Z,5.64
2023-05-27T17:50:03.650Z,5.70
2023-05-27T17:52:30.237Z,5.71
2023-05-27T17:54:56.797Z,5.78
2023-05-27T17:57:23.529Z,5.83
2023-05-27T17:59:50.246Z,5.77
2023-05-27T18:02:18.249Z,6.15
2023-05-27T18:04:45.036Z,6.38
2023-05-27T18:07:11.733Z,6.41
2023-05-27T18:09:39.755Z,6.40
2023-05-27T18:12:07.829Z,6.33
2023-05-27T18:14:35.374Z,6.57
2023-05-27T18:17:06.436Z,6.26
2023-05-27T18:19:33.839Z,6.80
2023-05-27T18:22:00.544Z,6.74
2023-05-27T18:24:27.122Z,6.79
2023-05-27T18:26:54.410Z,6.58
2023-05-27T18:29:21.291Z,6.39
2023-05-27T18:31:47.894Z,6.54
2023-05-27T18:34:16.426Z,6.38
2023-05-27T18:36:43.189Z,6.79
2023-05-27T18:39:09.758Z,6.93
2023-05-27T18:41:36.465Z,6.57
2023-05-27T18:44:04.120Z,6.47
2023-05-27T18:46:30.941Z,6.54
2023-05-27T18:48:57.611Z,6.40
2023-05-27T18:51:24.221Z,6.75
2023-05-27T18:53:50.941Z,6.54
2023-05-27T18:56:18.669Z,6.59
2023-05-27T18:58:45.631Z,6.88
2023-05-27T19:01:12.300Z,6.48
2023-05-27T19:03:39.158Z,6.76
2023-05-27T19:06:05.943Z,6.61
2023-05-27T19:08:32.687Z,7.05
2023-05-27T19:10:59.346Z,7.18
2023-05-27T19:13:26.124Z,7.22
2023-05-27T19:15:52.770Z,6.82
2023-05-27T19:18:19.451Z,6.78
2023-05-27T19:20:46.270Z,6.83
2023-05-27T19:23:13.039Z,7.13
2023-05-27T19:25:39.863Z,7.03
2023-05-27T19:28:06.443Z,6.78
2023-05-27T19:30:33.032Z,7.03
2023-05-27T19:32:59.815Z,7.32
2023-05-27T19:35:26.552Z,7.39
2023-05-27T19:37:53.302Z,7.44
2023-05-27T19:40:19.952Z,7.24
2023-05-27T19:42:46.769Z,7.32
2023-05-27T19:45:13.317Z,7.25
2023-05-27T19:47:39.899Z,7.55
2023-05-27T19:50:07.412Z,7.46
2023-05-27T19:52:34.070Z,7.30
2023-05-27T19:55:02.088Z,7.52
2023-05-27T19:57:29.086Z,7.65
2023-05-27T19:59:55.724Z,7.37
2023-05-27T20:02:22.491Z,7.97
2023-05-27T20:04:49.152Z,7.38
2023-05-27T20:07:15.810Z,7.40
2023-05-27T20:09:42.673Z,7.61
2023-05-27T20:12:09.300Z,8.14
2023-05-27T20:14:35.954Z,8.08
2023-05-27T20:17:02.580Z,7.70
2023-05-27T20:19:29.215Z,7.80
2023-05-27T20:21:55.820Z,7.82
2023-05-27T20:24:22.407Z,8.44
2023-05-27T20:26:48.988Z,8.17
2023-05-27T20:29:15.671Z,8.48
2023-05-27T20:31:43.400Z,8.91
2023-05-27T20:34:09.988Z,8.63
2023-05-27T20:36:36.690Z,8.39
2023-05-27T20:39:03.370Z,9.06
2023-05-27T20:41:29.948Z,9.71
2023-05-27T20:43:59.341Z,10.51
2023-05-27T20:46:27.601Z,11.75
2023-05-27T20:48:56.232Z,13.11
2023-05-27T20:51:26.604Z,14.12
2023-05-27T20:53:54.283Z,14.81
2023-05-27T20:56:26.038Z,15.17
2023-05-27T20:58:52.762Z,15.16
2023-05-27T21:01:19.365Z,16.66
2023-05-27T21:03:46.151Z,17.36
2023-05-27T21:06:13.419Z,16.34
2023-05-27T21:08:40.046Z,15.95
2023-05-27T21:11:06.671Z,15.12
2023-05-27T21:13:33.302Z,13.22
2023-05-27T21:16:00.105Z,11.58
2023-05-27T21:18:26.794Z,10.68
2023-05-27T21:20:55.403Z,9.76
2023-05-27T21:23:23.237Z,9.12
2023-05-27T21:25:50.989Z,8.56
2023-05-27T21:28:17.646Z,9.29
2023-05-27T21:30:44.997Z,8.96
2023-05-27T21:33:12.065Z,9.40
2023-05-27T21:35:38.812Z,9.37
2023-05-27T21:38:07.074Z,9.52
2023-05-27T21:40:33.782Z,8.97
2023-05-27T21:43:00.490Z,9.54
2023-05-27T21:45:28.500Z,9.71
2023-05-27T21:47:55.361Z,9.17
2023-05-27T21:50:22.105Z,8.64
2023-05-27T21:52:48.706Z,8.74
2023-05-27T21:55:15.404Z,8.75
2023-05-27T21:57:42.038Z,8.38
2023-05-27T22:00:14.699Z,8.04
2023-05-27T22:02:41.425Z,8.14
2023-05-27T22:05:08.396Z,8.38
2023-05-27T22:07:34.963Z,8.73
2023-05-27T22:10:01.649Z,8.54
2023-05-27T22:12:28.248Z,8.59
2023-05-27T22:14:54.856Z,8.52
2023-05-27T22:17:21.515Z,8.16
2023-05-27T22:19:48.110Z,8.22
2023-05-27T22:22:14.703Z,8.49
2023-05-27T22:24:41.304Z,8.30
2023-05-27T22:27:08.107Z,8.45
2023-05-27T22:29:34.769Z,8.16
2023-05-27T22:32:01.328Z,8.54
2023-05-27T22:34:27.922Z,8.77
2023-05-27T22:36:54.464Z,8.41
2023-05-27T22:39:21.421Z,8.70
2023-05-27T22:41:48.077Z,8.47
2023-05-27T22:44:14.707Z,8.30
2023-05-27T22:46:41.323Z,8.11
2023-05-27T22:49:10.236Z,8.94
2023-05-27T22:51:38.129Z,8.57
2023-05-27T22:54:05.168Z,8.68
2023-05-27T22:56:31.744Z,8.93
2023-05-27T22:58:58.307Z,9.25
2023-05-27T23:01:24.910Z,8.32
2023-05-27T23:03:51.581Z,8.89
2023-05-27T23:06:18.264Z,9.23
2023-05-27T23:08:44.869Z,8.53
2023-05-27T23:11:11.423Z,8.34
2023-05-27T23:13:38.043Z,8.44
2023-05-27T23:16:08.808Z,8.80
2023-05-27T23:18:36.061Z,8.87
2023-05-27T23:21:04.718Z,8.98
2023-05-27T23:23:31.768Z,9.25
2023-05-27T23:25:59.310Z,8.96
2023-05-27T23:28:25.946Z,9.07
2023-05-27T23:30:52.786Z,9.31
2023-05-27T23:33:20.057Z,9.14
2023-05-27T23:35:46.669Z,8.96
2023-05-27T23:38:13.468Z,9.04
2023-05-27T23:40:40.058Z,9.36
2023-05-27T23:43:06.843Z,8.87
2023-05-27T23:45:33.490Z,9.15
2023-05-27T23:48:00.312Z,8.92
2023-05-27T23:50:27.020Z,8.93
2023-05-27T23:52:53.642Z,8.85
2023-05-27T23:55:20.330Z,8.87
2023-05-27T23:57:46.938Z,8.79
